Nikolai, Alaska
Current Conditions -  °F | °C
As of 3:56 AM on Wednesday 26 Nov 2014 (Local Time) from PAFS Reporting Station
Overcast Overcast  
Wind Chill: 20°   Ceiling: 900
Heat Index: 20°   Visibility: 10mi
Dew Point: 17°   Wind: 0mph
Humidity: 88%   Direction: NA
Pressure: 30.4"   Gusts: NA
Location:  63.01°N, 154.38°W
Report Text: PAFS 261256Z AUTO 00000KT 10SM OVC009 M07/M08 A3040 RMK AO2 TSNO T10661083 SLP309 $
Loading
Personal Weather Stations






























Interactive Weather Map New forecast layout! Learn more

10-Day Weather Forecast

Advertisements
Track Severe Weather on mobile